Spring Glen, Washington
Current Conditions -  °F | °C
As of 2:53 PM on Wednesday 17 Dec 2014 (Local Time) from KRNT Reporting Station
Overcast Overcast  
Wind Chill: 48°   Ceiling: 5000
Heat Index: 48°   Visibility: 10mi
Dew Point: 44°   Wind: 0mph
Humidity: 86%   Direction: NA
Pressure: 29.84"   Gusts: NA
Location:  47.6631°N, 121.723°W
Report Text: KRNT 172253Z 00000KT 10SM OVC050 09/07 A2984 RMK AO2 RAB2157E39 SLP110 P0000 T00890067
Loading
Personal Weather Stations






























Interactive Weather Map New forecast layout! Learn more

10-Day Weather Forecast

Advertisements
Track Severe Weather on mobile